Αρχική σελίδα
METAR-TAF:

METAR-TAF

Αεροδρόμια :

Ινβερνές, Σκωτία

γεωγραφικό πλάτος: 57-32N, γεωγραφικό μήκος: 004-03W, υψόμετρο: 9 μ

Παρών καιρός

Η αναφορά έγινε 45 λεπτά πριν, στις 07:50 UTC
Άνεμος 2 kt από μεταβλητές κατευθύνσεις
Θερμοκρασία 12°C
Υγρασία 94%
Πίεση 1009 hPa
Ορατότητα: 5000 μ
Αρκετά νέφη σε ύψος 300 πόδια
Νεφοσκεπής σε ύψος 700 πόδια
Αχλής,

METAR: EGPE 150750Z VRB02KT 5000 BR BKN003 OVC007 12/11 Q1009

Χρόνος: 09:35 (08:35 UTC)

Πρόγνωση Καιρού

Η αναφορά έγινε 40 λεπτά πριν, στις 07:55 UTC
Η πρόγνωση ισχύει από τις 15 στις 09 UTC έως τις 15 στις 18 UTC
Άνεμος 3 kt από Α
Ορατότητα 10 χλμ και άνω
Διάσπαρτα νέφη σε ύψος 1200 πόδια
Πιθανότητα 30% :
Προσωρινά
από 15 στις 09 UTC έως τις 15 στις 12 UTC
Αρκετά νέφη σε ύψος 800 πόδια

TAF: EGPE 150755Z 1509/1518 08003KT 9999 SCT012 PROB30 TEMPO 1509/1512 BKN008

Μετεωρολογικές αναφορές και προγνώσεις για περισσότερα από 4000 αεροδρόμια (δελτία METAR και TAF).

Οι διαθέσιμοι σταθμοί απεικονίζονται στο χάρτη με κίτρινες και κόκκινες κουκκίδες.

Μετακινήστε το ποντίκι πάνω από τις κουκκίδες για να δείτε το όνομα του σταθμού.

Στη συνέχεια, κάντε κλικ για να δείτε τις μετεωρολογικές αναφορές και τις προγνώσεις καιρού.

Για να αλλάξετε το χάρτη: κάντε κλικ στα πράσινα κουμπιά με τον μαύρο σταυρό για να ζουμάρετε, στο πράσινο κουμπί με την παύλα για να αφαιρέσετε το ζουμ ή στα πράσινα βέλη για να αντιπαραβάλλετε χάρτες.


METAR-TAF: